N864CL KBFI-KJAC
Flight info
| Callsign | N864CL |
|---|---|
| Flight time | 1h 42m |
| Altitude | 40000 |
| Route | NORMY J90 MWH IPARK PETTZ TOCUD DNW |
| Aircraft | HDJT/L-SABDGRWY/H |
Departure
| Time | 2026-04-28 22:31 |
|---|---|
| Airport | King County International Airport - Boeing Field (KBFI) |
Arrival
| Time | 2026-04-29 00:13 |
|---|---|
| Airport | Jackson Hole Airport (KJAC) |
| Time | Latitude | Longitude | Altitude | Speed | Heading |
|---|---|---|---|---|---|
| 2026-04-28 22:21 | 47.53809 | -122.30550 | 22 ft | 0 kts | 143° |
| 2026-04-28 22:28 | 47.53803 | -122.30544 | 22 ft | 6 kts | 149° |
| 2026-04-28 22:28 | 47.53772 | -122.30623 | 22 ft | 14 kts | 320° |
| 2026-04-28 22:29 | 47.53859 | -122.30702 | 22 ft | 19 kts | 330° |
| 2026-04-28 22:29 | 47.54020 | -122.30840 | 22 ft | 29 kts | 329° |
| 2026-04-28 22:29 | 47.54105 | -122.30960 | 22 ft | 9 kts | 277° |
| 2026-04-28 22:29 | 47.54068 | -122.31073 | 22 ft | 18 kts | 240° |
| 2026-04-28 22:30 | 47.53976 | -122.31070 | 21 ft | 36 kts | 150° |
| 2026-04-28 22:30 | 47.53494 | -122.30661 | 18 ft | 119 kts | 150° |
| 2026-04-28 22:30 | 47.52669 | -122.29962 | 227 ft | 151 kts | 151° |
| 2026-04-28 22:30 | 47.51685 | -122.29128 | 609 ft | 171 kts | 151° |
| 2026-04-28 22:31 | 47.50643 | -122.28301 | 1458 ft | 165 kts | 155° |
| 2026-04-28 22:31 | 47.49642 | -122.27519 | 2365 ft | 162 kts | 154° |
| 2026-04-28 22:31 | 47.48625 | -122.26724 | 3099 ft | 167 kts | 154° |
| 2026-04-28 22:31 | 47.47586 | -122.25912 | 3861 ft | 170 kts | 155° |
| 2026-04-28 22:32 | 47.46530 | -122.25085 | 4652 ft | 173 kts | 154° |
| 2026-04-28 22:32 | 47.45474 | -122.24210 | 5417 ft | 175 kts | 148° |
| 2026-04-28 22:32 | 47.44457 | -122.23185 | 6152 ft | 180 kts | 147° |
| 2026-04-28 22:32 | 47.43402 | -122.22162 | 6888 ft | 183 kts | 149° |
| 2026-04-28 22:33 | 47.42296 | -122.21213 | 7602 ft | 186 kts | 152° |
| 2026-04-28 22:33 | 47.41166 | -122.20216 | 8303 ft | 192 kts | 140° |
| 2026-04-28 22:33 | 47.40501 | -122.18582 | 9056 ft | 192 kts | 97° |
| 2026-04-28 22:33 | 47.40661 | -122.16648 | 9784 ft | 193 kts | 70° |
| 2026-04-28 22:34 | 47.40944 | -122.14695 | 10517 ft | 196 kts | 82° |
| 2026-04-28 22:34 | 47.41038 | -122.12677 | 11209 ft | 199 kts | 85° |
| 2026-04-28 22:34 | 47.41120 | -122.10629 | 11917 ft | 201 kts | 84° |
| 2026-04-28 22:34 | 47.41223 | -122.08556 | 12627 ft | 204 kts | 83° |
| 2026-04-28 22:35 | 47.41328 | -122.06450 | 13347 ft | 207 kts | 83° |
| 2026-04-28 22:35 | 47.41434 | -122.04311 | 14073 ft | 210 kts | 82° |
| 2026-04-28 22:35 | 47.41539 | -122.02144 | 14732 ft | 212 kts | 82° |
| 2026-04-28 22:35 | 47.41643 | -121.99990 | 15393 ft | 214 kts | 82° |
| 2026-04-28 22:36 | 47.41751 | -121.97783 | 16064 ft | 216 kts | 82° |
| 2026-04-28 22:36 | 47.41857 | -121.95555 | 16693 ft | 219 kts | 82° |
| 2026-04-28 22:36 | 47.41965 | -121.93303 | 17311 ft | 221 kts | 82° |
| 2026-04-28 22:36 | 47.42073 | -121.91024 | 17915 ft | 224 kts | 82° |
| 2026-04-28 22:37 | 47.42183 | -121.88714 | 18527 ft | 226 kts | 82° |
| 2026-04-28 22:37 | 47.42294 | -121.86378 | 19056 ft | 229 kts | 81° |
| 2026-04-28 22:37 | 47.42405 | -121.84016 | 19595 ft | 231 kts | 81° |
| 2026-04-28 22:37 | 47.42516 | -121.81632 | 20131 ft | 234 kts | 81° |
| 2026-04-28 22:38 | 47.42631 | -121.79220 | 20683 ft | 237 kts | 81° |
| 2026-04-28 22:38 | 47.42740 | -121.76805 | 21227 ft | 239 kts | 80° |
| 2026-04-28 22:38 | 47.42855 | -121.74344 | 21788 ft | 242 kts | 80° |
| 2026-04-28 22:38 | 47.42958 | -121.71849 | 22355 ft | 246 kts | 84° |
| 2026-04-28 22:39 | 47.42925 | -121.69301 | 22923 ft | 250 kts | 85° |
| 2026-04-28 22:39 | 47.42884 | -121.66716 | 23491 ft | 252 kts | 84° |
| 2026-04-28 22:39 | 47.42852 | -121.64108 | 24012 ft | 256 kts | 84° |
| 2026-04-28 22:39 | 47.42820 | -121.61468 | 24475 ft | 258 kts | 85° |
| 2026-04-28 22:40 | 47.42784 | -121.58809 | 24925 ft | 260 kts | 84° |
| 2026-04-28 22:40 | 47.42746 | -121.56120 | 25362 ft | 262 kts | 85° |
| 2026-04-28 22:40 | 47.42707 | -121.53416 | 25828 ft | 264 kts | 85° |
| 2026-04-28 22:40 | 47.42669 | -121.50698 | 26288 ft | 266 kts | 85° |
| 2026-04-28 22:41 | 47.42630 | -121.47946 | 26721 ft | 269 kts | 85° |
| 2026-04-28 22:41 | 47.42589 | -121.45173 | 27199 ft | 270 kts | 85° |
| 2026-04-28 22:41 | 47.42548 | -121.42411 | 27592 ft | 274 kts | 85° |
| 2026-04-28 22:41 | 47.42505 | -121.39595 | 28018 ft | 276 kts | 85° |
| 2026-04-28 22:42 | 47.42461 | -121.36751 | 28409 ft | 278 kts | 85° |
| 2026-04-28 22:42 | 47.42417 | -121.33890 | 28856 ft | 279 kts | 85° |
| 2026-04-28 22:42 | 47.42371 | -121.31009 | 29302 ft | 281 kts | 85° |
| 2026-04-28 22:42 | 47.42324 | -121.28116 | 29679 ft | 283 kts | 85° |
| 2026-04-28 22:43 | 47.42277 | -121.25198 | 30087 ft | 286 kts | 85° |
| 2026-04-28 22:43 | 47.42227 | -121.22256 | 30472 ft | 287 kts | 86° |
| 2026-04-28 22:43 | 47.42175 | -121.19288 | 30815 ft | 290 kts | 85° |
| 2026-04-28 22:43 | 47.42126 | -121.16311 | 31152 ft | 291 kts | 86° |
| 2026-04-28 22:44 | 47.42074 | -121.13313 | 31476 ft | 293 kts | 86° |
| 2026-04-28 22:44 | 47.42020 | -121.10295 | 31793 ft | 294 kts | 86° |
| 2026-04-28 22:44 | 47.41966 | -121.07304 | 32096 ft | 295 kts | 86° |
| 2026-04-28 22:44 | 47.41910 | -121.04262 | 32425 ft | 297 kts | 86° |
| 2026-04-28 22:45 | 47.41854 | -121.01196 | 32739 ft | 299 kts | 86° |
| 2026-04-28 22:45 | 47.41797 | -120.98111 | 33044 ft | 302 kts | 86° |
| 2026-04-28 22:45 | 47.41737 | -120.94996 | 33331 ft | 304 kts | 86° |
| 2026-04-28 22:45 | 47.41676 | -120.91868 | 33629 ft | 306 kts | 86° |
| 2026-04-28 22:46 | 47.41613 | -120.88717 | 33878 ft | 308 kts | 87° |
| 2026-04-28 22:46 | 47.41552 | -120.85541 | 34144 ft | 310 kts | 87° |
| 2026-04-28 22:46 | 47.41489 | -120.82343 | 34384 ft | 311 kts | 87° |
| 2026-04-28 22:46 | 47.41422 | -120.79136 | 34605 ft | 313 kts | 87° |
| 2026-04-28 22:47 | 47.41356 | -120.75963 | 34818 ft | 314 kts | 87° |
| 2026-04-28 22:47 | 47.41288 | -120.72733 | 35032 ft | 315 kts | 86° |
| 2026-04-28 22:47 | 47.41219 | -120.69490 | 35262 ft | 317 kts | 87° |
| 2026-04-28 22:47 | 47.41150 | -120.66236 | 35457 ft | 318 kts | 87° |
| 2026-04-28 22:48 | 47.41078 | -120.62968 | 35697 ft | 319 kts | 87° |
| 2026-04-28 22:48 | 47.41004 | -120.59684 | 35903 ft | 320 kts | 86° |
| 2026-04-28 22:48 | 47.40932 | -120.56383 | 36123 ft | 322 kts | 86° |
| 2026-04-28 22:48 | 47.40858 | -120.53074 | 36334 ft | 323 kts | 86° |
| 2026-04-28 22:49 | 47.40780 | -120.49752 | 36552 ft | 324 kts | 86° |
| 2026-04-28 22:49 | 47.40702 | -120.46410 | 36736 ft | 327 kts | 86° |
| 2026-04-28 22:49 | 47.40621 | -120.43046 | 36926 ft | 329 kts | 88° |
| 2026-04-28 22:49 | 47.40261 | -120.39677 | 37126 ft | 335 kts | 100° |
| 2026-04-28 22:50 | 47.39661 | -120.36338 | 37318 ft | 337 kts | 101° |
| 2026-04-28 22:50 | 47.39060 | -120.32997 | 37503 ft | 338 kts | 100° |
| 2026-04-28 22:50 | 47.38486 | -120.29619 | 37696 ft | 338 kts | 99° |
| 2026-04-28 22:50 | 47.37921 | -120.26290 | 37876 ft | 340 kts | 100° |
| 2026-04-28 22:51 | 47.37331 | -120.22898 | 38069 ft | 341 kts | 100° |
| 2026-04-28 22:51 | 47.36736 | -120.19507 | 38245 ft | 342 kts | 100° |
| 2026-04-28 22:51 | 47.36144 | -120.16099 | 38438 ft | 343 kts | 100° |
| 2026-04-28 22:51 | 47.35550 | -120.12679 | 38600 ft | 345 kts | 100° |
| 2026-04-28 22:52 | 47.34949 | -120.09244 | 38758 ft | 346 kts | 100° |
| 2026-04-28 22:52 | 47.34348 | -120.05811 | 38895 ft | 347 kts | 100° |
| 2026-04-28 22:52 | 47.33744 | -120.02369 | 39021 ft | 347 kts | 100° |
| 2026-04-28 22:53 | 47.32520 | -119.95400 | 39093 ft | 356 kts | 100° |
| 2026-04-28 22:53 | 47.31253 | -119.88230 | 39096 ft | 366 kts | 100° |
| 2026-04-28 22:54 | 47.29957 | -119.80919 | 39102 ft | 375 kts | 100° |
| 2026-04-28 22:54 | 47.28617 | -119.73394 | 39105 ft | 383 kts | 101° |
| 2026-04-28 22:55 | 47.27245 | -119.65724 | 39101 ft | 390 kts | 101° |
| 2026-04-28 22:55 | 47.25845 | -119.57929 | 39103 ft | 396 kts | 101° |
| 2026-04-28 22:56 | 47.24420 | -119.50026 | 39104 ft | 402 kts | 101° |
| 2026-04-28 22:56 | 47.22973 | -119.42039 | 39120 ft | 406 kts | 101° |
| 2026-04-28 22:57 | 47.21507 | -119.33984 | 39119 ft | 409 kts | 101° |
| 2026-04-28 22:57 | 47.19389 | -119.26131 | 39134 ft | 416 kts | 112° |
| 2026-04-28 22:58 | 47.16941 | -119.18391 | 39134 ft | 418 kts | 111° |
| 2026-04-28 22:58 | 47.14528 | -119.10582 | 39134 ft | 421 kts | 112° |
| 2026-04-28 22:59 | 47.12066 | -119.02762 | 39141 ft | 422 kts | 112° |
| 2026-04-28 22:59 | 47.09625 | -118.94963 | 39139 ft | 424 kts | 112° |
| 2026-04-28 23:00 | 47.07146 | -118.87106 | 39142 ft | 425 kts | 112° |
| 2026-04-28 23:00 | 47.04655 | -118.79219 | 39141 ft | 426 kts | 112° |
| 2026-04-28 23:01 | 47.02152 | -118.71322 | 39144 ft | 427 kts | 112° |
| 2026-04-28 23:01 | 46.99639 | -118.63417 | 39143 ft | 428 kts | 112° |
| 2026-04-28 23:02 | 46.97112 | -118.55495 | 39144 ft | 429 kts | 112° |
| 2026-04-28 23:02 | 46.94597 | -118.47633 | 39142 ft | 429 kts | 112° |
| 2026-04-28 23:03 | 46.92059 | -118.39724 | 39144 ft | 429 kts | 112° |
| 2026-04-28 23:03 | 46.89515 | -118.31822 | 39144 ft | 429 kts | 112° |
| 2026-04-28 23:04 | 46.86964 | -118.23922 | 39144 ft | 429 kts | 112° |
| 2026-04-28 23:04 | 46.83132 | -118.12097 | 39143 ft | 429 kts | 112° |
| 2026-04-28 23:05 | 46.80568 | -118.04218 | 39143 ft | 429 kts | 112° |
| 2026-04-28 23:05 | 46.78002 | -117.96357 | 39147 ft | 429 kts | 112° |
| 2026-04-28 23:06 | 46.75445 | -117.88544 | 39162 ft | 429 kts | 112° |
| 2026-04-28 23:06 | 46.72867 | -117.80695 | 39160 ft | 428 kts | 112° |
| 2026-04-28 23:07 | 46.70291 | -117.72872 | 39163 ft | 428 kts | 112° |
| 2026-04-28 23:07 | 46.67709 | -117.65058 | 39166 ft | 428 kts | 112° |
| 2026-04-28 23:08 | 46.65126 | -117.57262 | 39172 ft | 427 kts | 112° |
| 2026-04-28 23:08 | 46.62537 | -117.49474 | 39179 ft | 427 kts | 112° |
| 2026-04-28 23:09 | 46.60384 | -117.43013 | 39175 ft | 427 kts | 112° |
| 2026-04-28 23:09 | 46.57793 | -117.35259 | 39172 ft | 426 kts | 113° |
| 2026-04-28 23:10 | 46.55200 | -117.27523 | 39175 ft | 425 kts | 113° |
| 2026-04-28 23:10 | 46.52608 | -117.19810 | 39174 ft | 425 kts | 113° |
| 2026-04-28 23:11 | 46.50013 | -117.12117 | 39171 ft | 423 kts | 113° |
| 2026-04-28 23:11 | 46.47422 | -117.04453 | 39162 ft | 423 kts | 113° |
| 2026-04-28 23:12 | 46.44829 | -116.96805 | 39158 ft | 422 kts | 113° |
| 2026-04-28 23:12 | 46.42250 | -116.89223 | 39153 ft | 422 kts | 113° |
| 2026-04-28 23:13 | 46.39648 | -116.81596 | 39151 ft | 422 kts | 113° |
| 2026-04-28 23:13 | 46.37038 | -116.73967 | 39148 ft | 422 kts | 113° |
| 2026-04-28 23:14 | 46.34426 | -116.66355 | 39151 ft | 422 kts | 113° |
| 2026-04-28 23:14 | 46.31811 | -116.58752 | 39143 ft | 422 kts | 114° |
| 2026-04-28 23:15 | 46.29195 | -116.51172 | 39144 ft | 421 kts | 114° |
| 2026-04-28 23:15 | 46.26575 | -116.43601 | 39137 ft | 420 kts | 114° |
| 2026-04-28 23:16 | 46.23950 | -116.36039 | 39140 ft | 420 kts | 114° |
| 2026-04-28 23:16 | 46.21325 | -116.28495 | 39131 ft | 420 kts | 114° |
| 2026-04-28 23:17 | 46.18712 | -116.21009 | 39138 ft | 420 kts | 114° |
| 2026-04-28 23:17 | 46.16076 | -116.13477 | 39144 ft | 420 kts | 114° |
| 2026-04-28 23:18 | 46.13437 | -116.05961 | 39145 ft | 420 kts | 114° |
| 2026-04-28 23:18 | 46.10789 | -115.98439 | 39143 ft | 420 kts | 115° |
| 2026-04-28 23:19 | 46.08138 | -115.90927 | 39141 ft | 420 kts | 115° |
| 2026-04-28 23:19 | 46.05497 | -115.83465 | 39138 ft | 421 kts | 115° |
| 2026-04-28 23:20 | 46.02829 | -115.75953 | 39137 ft | 422 kts | 115° |
| 2026-04-28 23:20 | 46.00151 | -115.68428 | 39127 ft | 422 kts | 115° |
| 2026-04-28 23:21 | 45.97466 | -115.60908 | 39120 ft | 422 kts | 115° |
| 2026-04-28 23:21 | 45.94779 | -115.53403 | 39118 ft | 422 kts | 115° |
| 2026-04-28 23:22 | 45.92089 | -115.45908 | 39116 ft | 421 kts | 115° |
| 2026-04-28 23:22 | 45.89395 | -115.38426 | 39118 ft | 422 kts | 115° |
| 2026-04-28 23:23 | 45.86699 | -115.30956 | 39119 ft | 422 kts | 115° |
| 2026-04-28 23:23 | 45.83990 | -115.23472 | 39121 ft | 422 kts | 115° |
| 2026-04-28 23:24 | 45.81298 | -115.16061 | 39139 ft | 422 kts | 115° |
| 2026-04-28 23:24 | 45.78576 | -115.08580 | 39131 ft | 423 kts | 116° |
| 2026-04-28 23:25 | 45.75852 | -115.01116 | 39127 ft | 423 kts | 116° |
| 2026-04-28 23:25 | 45.73120 | -114.93653 | 39131 ft | 423 kts | 116° |
| 2026-04-28 23:26 | 45.70384 | -114.86197 | 39132 ft | 423 kts | 116° |
| 2026-04-28 23:26 | 45.67644 | -114.78754 | 39139 ft | 423 kts | 116° |
| 2026-04-28 23:27 | 45.64901 | -114.71321 | 39138 ft | 423 kts | 116° |
| 2026-04-28 23:27 | 45.62152 | -114.63893 | 39140 ft | 423 kts | 116° |
| 2026-04-28 23:28 | 45.59399 | -114.56472 | 39141 ft | 423 kts | 116° |
| 2026-04-28 23:28 | 45.56640 | -114.49059 | 39147 ft | 423 kts | 116° |
| 2026-04-28 23:29 | 45.53875 | -114.41648 | 39144 ft | 423 kts | 116° |
| 2026-04-28 23:29 | 45.51106 | -114.34246 | 39145 ft | 422 kts | 116° |
| 2026-04-28 23:30 | 45.48354 | -114.26912 | 39145 ft | 422 kts | 116° |
| 2026-04-28 23:30 | 45.45582 | -114.19535 | 39143 ft | 421 kts | 117° |
| 2026-04-28 23:31 | 45.44188 | -114.15839 | 38786 ft | 424 kts | 117° |
| 2026-04-28 23:31 | 45.42797 | -114.12161 | 38095 ft | 422 kts | 116° |
| 2026-04-28 23:31 | 45.41408 | -114.08487 | 37409 ft | 419 kts | 116° |
| 2026-04-28 23:31 | 45.40036 | -114.04857 | 36743 ft | 414 kts | 115° |
| 2026-04-28 23:32 | 45.38671 | -114.01259 | 36093 ft | 411 kts | 115° |
| 2026-04-28 23:32 | 45.37319 | -113.97694 | 35465 ft | 408 kts | 115° |
| 2026-04-28 23:32 | 45.35965 | -113.94120 | 34854 ft | 409 kts | 115° |
| 2026-04-28 23:32 | 45.34619 | -113.90587 | 34260 ft | 404 kts | 114° |
| 2026-04-28 23:33 | 45.33286 | -113.87094 | 33595 ft | 400 kts | 114° |
| 2026-04-28 23:33 | 45.31967 | -113.83632 | 32948 ft | 397 kts | 114° |
| 2026-04-28 23:33 | 45.30663 | -113.80209 | 32296 ft | 396 kts | 114° |
| 2026-04-28 23:33 | 45.29346 | -113.76765 | 31656 ft | 399 kts | 114° |
| 2026-04-28 23:34 | 45.28013 | -113.73281 | 31030 ft | 408 kts | 114° |
| 2026-04-28 23:34 | 45.26648 | -113.69717 | 30423 ft | 410 kts | 115° |
| 2026-04-28 23:34 | 45.25287 | -113.66184 | 29927 ft | 402 kts | 115° |
| 2026-04-28 23:34 | 45.23937 | -113.62674 | 29501 ft | 413 kts | 115° |
| 2026-04-28 23:35 | 45.22539 | -113.59014 | 29065 ft | 429 kts | 115° |
| 2026-04-28 23:35 | 45.21091 | -113.55252 | 28663 ft | 439 kts | 116° |
| 2026-04-28 23:35 | 45.19612 | -113.51442 | 28256 ft | 440 kts | 116° |
| 2026-04-28 23:35 | 45.18144 | -113.47652 | 27859 ft | 437 kts | 116° |
| 2026-04-28 23:36 | 45.16692 | -113.43890 | 27460 ft | 434 kts | 116° |
| 2026-04-28 23:36 | 45.15262 | -113.40191 | 27081 ft | 431 kts | 116° |
| 2026-04-28 23:36 | 45.13803 | -113.36432 | 26699 ft | 429 kts | 117° |
| 2026-04-28 23:36 | 45.12384 | -113.32785 | 26413 ft | 427 kts | 117° |
| 2026-04-28 23:37 | 45.10953 | -113.29103 | 26152 ft | 426 kts | 117° |
| 2026-04-28 23:37 | 45.09528 | -113.25443 | 25904 ft | 424 kts | 117° |
| 2026-04-28 23:37 | 45.08104 | -113.21792 | 25655 ft | 422 kts | 117° |
| 2026-04-28 23:37 | 45.06684 | -113.18156 | 25408 ft | 421 kts | 117° |
| 2026-04-28 23:38 | 45.05263 | -113.14522 | 25166 ft | 419 kts | 118° |
| 2026-04-28 23:38 | 45.03852 | -113.10918 | 24923 ft | 418 kts | 118° |
| 2026-04-28 23:38 | 45.02444 | -113.07326 | 24608 ft | 417 kts | 118° |
| 2026-04-28 23:38 | 45.01059 | -113.03796 | 24145 ft | 416 kts | 118° |
| 2026-04-28 23:39 | 44.99669 | -113.00259 | 23672 ft | 411 kts | 119° |
| 2026-04-28 23:39 | 44.98278 | -112.96725 | 23119 ft | 409 kts | 119° |
| 2026-04-28 23:39 | 44.96903 | -112.93237 | 22568 ft | 403 kts | 119° |
| 2026-04-28 23:39 | 44.95551 | -112.89808 | 22032 ft | 398 kts | 119° |
| 2026-04-28 23:40 | 44.94202 | -112.86392 | 21502 ft | 395 kts | 119° |
| 2026-04-28 23:40 | 44.92875 | -112.83037 | 20986 ft | 390 kts | 119° |
| 2026-04-28 23:40 | 44.91548 | -112.79688 | 20479 ft | 386 kts | 119° |
| 2026-04-28 23:40 | 44.90248 | -112.76407 | 19977 ft | 381 kts | 119° |
| 2026-04-28 23:41 | 44.88972 | -112.73192 | 19500 ft | 378 kts | 118° |
| 2026-04-28 23:41 | 44.87694 | -112.69976 | 19015 ft | 374 kts | 118° |
| 2026-04-28 23:41 | 44.86412 | -112.66753 | 18531 ft | 370 kts | 118° |
| 2026-04-28 23:41 | 44.85172 | -112.63640 | 18000 ft | 366 kts | 118° |
| 2026-04-28 23:42 | 44.83927 | -112.60518 | 17483 ft | 363 kts | 119° |
| 2026-04-28 23:42 | 44.82706 | -112.57457 | 16942 ft | 356 kts | 120° |
| 2026-04-28 23:42 | 44.81493 | -112.54420 | 16417 ft | 354 kts | 120° |
| 2026-04-28 23:42 | 44.80285 | -112.51401 | 15897 ft | 353 kts | 120° |
| 2026-04-28 23:43 | 44.79088 | -112.48411 | 15403 ft | 350 kts | 120° |
| 2026-04-28 23:43 | 44.77897 | -112.45439 | 14903 ft | 345 kts | 120° |
| 2026-04-28 23:43 | 44.76701 | -112.42461 | 14410 ft | 354 kts | 120° |
| 2026-04-28 23:43 | 44.75501 | -112.39474 | 14008 ft | 352 kts | 120° |
| 2026-04-28 23:44 | 44.74326 | -112.36551 | 13999 ft | 337 kts | 120° |
| 2026-04-28 23:44 | 44.73166 | -112.33668 | 13996 ft | 339 kts | 120° |
| 2026-04-28 23:44 | 44.71994 | -112.30764 | 13997 ft | 346 kts | 120° |
| 2026-04-28 23:44 | 44.70824 | -112.27861 | 13993 ft | 338 kts | 120° |
| 2026-04-28 23:45 | 44.69648 | -112.24948 | 14000 ft | 341 kts | 120° |
| 2026-04-28 23:45 | 44.68481 | -112.22059 | 13996 ft | 336 kts | 120° |
| 2026-04-28 23:45 | 44.67334 | -112.19226 | 14002 ft | 340 kts | 120° |
| 2026-04-28 23:45 | 44.66158 | -112.16323 | 14000 ft | 346 kts | 120° |
| 2026-04-28 23:46 | 44.64967 | -112.13385 | 13995 ft | 340 kts | 120° |
| 2026-04-28 23:46 | 44.63797 | -112.10501 | 14006 ft | 341 kts | 120° |
| 2026-04-28 23:46 | 44.62621 | -112.07608 | 14009 ft | 341 kts | 120° |
| 2026-04-28 23:46 | 44.61444 | -112.04714 | 14007 ft | 341 kts | 120° |
| 2026-04-28 23:47 | 44.60259 | -112.01802 | 14011 ft | 344 kts | 120° |
| 2026-04-28 23:47 | 44.59071 | -111.98887 | 14020 ft | 350 kts | 120° |
| 2026-04-28 23:47 | 44.57897 | -111.96010 | 14017 ft | 341 kts | 120° |
| 2026-04-28 23:47 | 44.56709 | -111.93099 | 14021 ft | 344 kts | 120° |
| 2026-04-28 23:48 | 44.55522 | -111.90192 | 14019 ft | 343 kts | 120° |
| 2026-04-28 23:48 | 44.54581 | -111.87134 | 14031 ft | 341 kts | 107° |
| 2026-04-28 23:48 | 44.53891 | -111.83941 | 14018 ft | 343 kts | 107° |
| 2026-04-28 23:48 | 44.53164 | -111.80756 | 14020 ft | 344 kts | 108° |
| 2026-04-28 23:49 | 44.52432 | -111.77581 | 14023 ft | 339 kts | 108° |
| 2026-04-28 23:49 | 44.51721 | -111.74430 | 14025 ft | 340 kts | 107° |
| 2026-04-28 23:49 | 44.51009 | -111.71255 | 14025 ft | 343 kts | 107° |
| 2026-04-28 23:49 | 44.50289 | -111.68079 | 14023 ft | 341 kts | 107° |
| 2026-04-28 23:50 | 44.49562 | -111.64892 | 14028 ft | 344 kts | 107° |
| 2026-04-28 23:50 | 44.48837 | -111.61707 | 14030 ft | 343 kts | 107° |
| 2026-04-28 23:50 | 44.48115 | -111.58531 | 14026 ft | 342 kts | 107° |
| 2026-04-28 23:50 | 44.47393 | -111.55362 | 14025 ft | 342 kts | 108° |
| 2026-04-28 23:51 | 44.46667 | -111.52189 | 14022 ft | 341 kts | 108° |
| 2026-04-28 23:51 | 44.45952 | -111.49066 | 14022 ft | 342 kts | 108° |
| 2026-04-28 23:51 | 44.45216 | -111.45846 | 14025 ft | 344 kts | 108° |
| 2026-04-28 23:51 | 44.44493 | -111.42698 | 14022 ft | 344 kts | 108° |
| 2026-04-28 23:52 | 44.43759 | -111.39507 | 14029 ft | 344 kts | 108° |
| 2026-04-28 23:52 | 44.43025 | -111.36320 | 14027 ft | 344 kts | 108° |
| 2026-04-28 23:52 | 44.42290 | -111.33128 | 14029 ft | 347 kts | 108° |
| 2026-04-28 23:52 | 44.41532 | -111.29844 | 14026 ft | 361 kts | 108° |
| 2026-04-28 23:53 | 44.40758 | -111.26496 | 14027 ft | 356 kts | 108° |
| 2026-04-28 23:53 | 44.40018 | -111.23297 | 14030 ft | 341 kts | 108° |
| 2026-04-28 23:53 | 44.39280 | -111.20116 | 14036 ft | 344 kts | 108° |
| 2026-04-28 23:53 | 44.38541 | -111.16934 | 14036 ft | 344 kts | 108° |
| 2026-04-28 23:54 | 44.37802 | -111.13752 | 14042 ft | 344 kts | 108° |
| 2026-04-28 23:54 | 44.37312 | -111.11647 | 14036 ft | 343 kts | 108° |
| 2026-04-28 23:54 | 44.36332 | -111.07446 | 14047 ft | 343 kts | 108° |
| 2026-04-28 23:54 | 44.35592 | -111.04278 | 14049 ft | 343 kts | 108° |
| 2026-04-28 23:55 | 44.35092 | -111.02139 | 14056 ft | 343 kts | 108° |
| 2026-04-28 23:55 | 44.34109 | -110.97942 | 14062 ft | 345 kts | 108° |
| 2026-04-28 23:55 | 44.33614 | -110.95827 | 14062 ft | 347 kts | 108° |
| 2026-04-28 23:55 | 44.32864 | -110.92633 | 14063 ft | 345 kts | 108° |
| 2026-04-28 23:56 | 44.32113 | -110.89441 | 14069 ft | 343 kts | 108° |
| 2026-04-28 23:56 | 44.31367 | -110.86269 | 14067 ft | 344 kts | 108° |
| 2026-04-28 23:56 | 44.30618 | -110.83089 | 14075 ft | 345 kts | 108° |
| 2026-04-28 23:56 | 44.29867 | -110.79912 | 14074 ft | 345 kts | 108° |
| 2026-04-28 23:57 | 44.29113 | -110.76725 | 14072 ft | 345 kts | 108° |
| 2026-04-28 23:57 | 44.28360 | -110.73542 | 14071 ft | 346 kts | 108° |
| 2026-04-28 23:57 | 44.27603 | -110.70353 | 14063 ft | 346 kts | 108° |
| 2026-04-28 23:57 | 44.26847 | -110.67166 | 14058 ft | 344 kts | 109° |
| 2026-04-28 23:58 | 44.25791 | -110.64196 | 14067 ft | 344 kts | 123° |
| 2026-04-28 23:58 | 44.24545 | -110.61339 | 14069 ft | 344 kts | 121° |
| 2026-04-28 23:58 | 44.23381 | -110.58421 | 14072 ft | 345 kts | 118° |
| 2026-04-28 23:58 | 44.22296 | -110.55441 | 14073 ft | 345 kts | 117° |
| 2026-04-28 23:59 | 44.21206 | -110.52468 | 14067 ft | 343 kts | 118° |
| 2026-04-28 23:59 | 44.20080 | -110.49536 | 14066 ft | 342 kts | 119° |
| 2026-04-28 23:59 | 44.18950 | -110.46602 | 14072 ft | 344 kts | 118° |
| 2026-04-28 23:59 | 44.17851 | -110.43691 | 14064 ft | 345 kts | 118° |
| 2026-04-29 00:00 | 44.16737 | -110.40734 | 14064 ft | 343 kts | 118° |
| 2026-04-29 00:00 | 44.15618 | -110.37795 | 14066 ft | 344 kts | 118° |
| 2026-04-29 00:00 | 44.14493 | -110.34852 | 14062 ft | 344 kts | 118° |
| 2026-04-29 00:00 | 44.13371 | -110.31905 | 14067 ft | 345 kts | 118° |
| 2026-04-29 00:01 | 44.12240 | -110.28935 | 14067 ft | 353 kts | 119° |
| 2026-04-29 00:01 | 44.10962 | -110.26095 | 14072 ft | 347 kts | 130° |
| 2026-04-29 00:01 | 44.09259 | -110.23693 | 14071 ft | 343 kts | 143° |
| 2026-04-29 00:01 | 44.07365 | -110.21950 | 14075 ft | 312 kts | 155° |
| 2026-04-29 00:02 | 44.05457 | -110.20840 | 13893 ft | 291 kts | 166° |
| 2026-04-29 00:02 | 44.03530 | -110.20256 | 13618 ft | 278 kts | 176° |
| 2026-04-29 00:02 | 44.01617 | -110.20143 | 13299 ft | 273 kts | 186° |
| 2026-04-29 00:02 | 43.99738 | -110.20470 | 12907 ft | 272 kts | 195° |
| 2026-04-29 00:03 | 43.97932 | -110.21222 | 12511 ft | 271 kts | 205° |
| 2026-04-29 00:03 | 43.96244 | -110.22365 | 12119 ft | 269 kts | 214° |
| 2026-04-29 00:03 | 43.94652 | -110.23726 | 11737 ft | 270 kts | 217° |
| 2026-04-29 00:03 | 43.93033 | -110.25086 | 11369 ft | 275 kts | 216° |
| 2026-04-29 00:04 | 43.91372 | -110.26444 | 11070 ft | 277 kts | 214° |
| 2026-04-29 00:04 | 43.89736 | -110.27788 | 11053 ft | 273 kts | 214° |
| 2026-04-29 00:04 | 43.88101 | -110.29163 | 11049 ft | 275 kts | 214° |
| 2026-04-29 00:04 | 43.86469 | -110.30546 | 11055 ft | 276 kts | 213° |
| 2026-04-29 00:05 | 43.84929 | -110.32092 | 11048 ft | 275 kts | 226° |
| 2026-04-29 00:05 | 43.83703 | -110.34111 | 11051 ft | 274 kts | 239° |
| 2026-04-29 00:05 | 43.82858 | -110.36469 | 11054 ft | 275 kts | 252° |
| 2026-04-29 00:05 | 43.82428 | -110.39177 | 11057 ft | 300 kts | 264° |
| 2026-04-29 00:06 | 43.82235 | -110.42048 | 11056 ft | 300 kts | 265° |
| 2026-04-29 00:06 | 43.82026 | -110.44932 | 11060 ft | 301 kts | 265° |
| 2026-04-29 00:06 | 43.81816 | -110.47811 | 11058 ft | 301 kts | 265° |
| 2026-04-29 00:06 | 43.81612 | -110.50703 | 11058 ft | 302 kts | 265° |
| 2026-04-29 00:07 | 43.81210 | -110.53506 | 11057 ft | 285 kts | 253° |
| 2026-04-29 00:07 | 43.80482 | -110.55917 | 11061 ft | 258 kts | 245° |
| 2026-04-29 00:07 | 43.79737 | -110.58044 | 11055 ft | 233 kts | 246° |
| 2026-04-29 00:07 | 43.79077 | -110.59993 | 11061 ft | 216 kts | 247° |
| 2026-04-29 00:08 | 43.78357 | -110.61772 | 10862 ft | 213 kts | 234° |
| 2026-04-29 00:08 | 43.77288 | -110.63219 | 10486 ft | 217 kts | 221° |
| 2026-04-29 00:08 | 43.76098 | -110.64486 | 10121 ft | 219 kts | 220° |
| 2026-04-29 00:08 | 43.74900 | -110.65801 | 9728 ft | 221 kts | 223° |
| 2026-04-29 00:09 | 43.73685 | -110.67130 | 9256 ft | 224 kts | 219° |
| 2026-04-29 00:09 | 43.72302 | -110.68152 | 8793 ft | 227 kts | 203° |
| 2026-04-29 00:09 | 43.70918 | -110.68783 | 8702 ft | 191 kts | 200° |
| 2026-04-29 00:09 | 43.69751 | -110.69351 | 8593 ft | 168 kts | 203° |
| 2026-04-29 00:10 | 43.68698 | -110.69867 | 8366 ft | 155 kts | 202° |
| 2026-04-29 00:10 | 43.67718 | -110.70348 | 8150 ft | 146 kts | 204° |
| 2026-04-29 00:10 | 43.66764 | -110.70796 | 7926 ft | 141 kts | 202° |
| 2026-04-29 00:10 | 43.65864 | -110.71224 | 7707 ft | 133 kts | 203° |
| 2026-04-29 00:11 | 43.65013 | -110.71672 | 7521 ft | 129 kts | 204° |
| 2026-04-29 00:11 | 43.64191 | -110.72096 | 7335 ft | 125 kts | 202° |
| 2026-04-29 00:11 | 43.62582 | -110.72875 | 6871 ft | 121 kts | 203° |
| 2026-04-29 00:12 | 43.61812 | -110.73247 | 6590 ft | 118 kts | 204° |
| 2026-04-29 00:12 | 43.61090 | -110.73602 | 6442 ft | 95 kts | 199° |
| 2026-04-29 00:12 | 43.60575 | -110.73857 | 6430 ft | 67 kts | 201° |
| 2026-04-29 00:12 | 43.60193 | -110.74045 | 6426 ft | 51 kts | 196° |
| 2026-04-29 00:13 | 43.59986 | -110.74128 | 6427 ft | 20 kts | 162° |
| 2026-04-29 00:13 | 43.59903 | -110.74016 | 6428 ft | 16 kts | 155° |
| 2026-04-29 00:13 | 43.59913 | -110.73919 | 6426 ft | 10 kts | 74° |
| 2026-04-29 00:13 | 43.59912 | -110.73901 | 6427 ft | 0 kts | 110° |